Flight Track Log - Related Links

Times and Time Zones

All times are in EDT time to prevent confusion due to time zone crossing. See the USC13 flight status page for this flight to view local times or setup timezone preferences in your user account.

Time Position Orientation Groundspeed Altitude Reporting Facility
EDT Latitude Longitude Course Direction KTS MPH feet Rate Location/Type
Wed 05:30:36 PM 39.8197 -82.9219 185° South 96 110 900  Level Indianapolis Center
Wed 05:31:13 PM 39.8311 -82.9069 45° Northeast 98 113 1,800 1,400 Climbing Indianapolis Center
Wed 05:32:06 PM 39.8472 -82.8811 51° Northeast 103 119 3,000 626 Climbing Indianapolis Center
Wed 05:33:08 PM 39.8472 -82.8406 90° East 152 175 3,000  Level Indianapolis Center
Wed 05:34:10 PM 39.8022 -82.8447 184° South 159 183 3,000 -48 Level Indianapolis Center
Wed 05:35:12 PM 39.7592 -82.8450 180° South 156 180 2,900 -48 Descending Indianapolis Center
Wed 05:36:00 PM 39.8138 -82.9278 185° South  Level Estimated
Wed 05:36:14 PM 39.7097 -82.8497 184° South 153 176 2,900  Level Indianapolis Center
Wed 05:37:16 PM 39.6667 -82.8506 181° South 152 175 3,000 48 Climbing Indianapolis Center
Wed 05:38:18 PM 39.6214 -82.8503 180° South 155 178 3,000  Level Indianapolis Center
Wed 05:39:20 PM 39.5778 -82.8536 183° South 156 180 3,000 48 Level Indianapolis Center
Wed 05:40:22 PM 39.5914 -82.8831 301° West 157 181 3,100 -48 Climbing Indianapolis Center
Wed 05:41:24 PM 39.6228 -82.8475 41° Northeast 153 176 2,900 -49 Descending Indianapolis Center
Wed 05:42:25 PM 39.6486 -82.8156 44° Northeast 141 162 3,000  Climbing Indianapolis Center
Wed 05:43:29 PM 39.6239 -82.8131 176° South 122 140 2,900 -97 Descending Indianapolis Center
Wed 05:44:29 PM 39.5997 -82.8347 215° Southwest 129 148 2,800  Descending Indianapolis Center
Wed 05:45:31 PM 39.5744 -82.8678 225° Southwest 121 139 2,900 97 Climbing Indianapolis Center
Wed 05:46:33 PM 39.5981 -82.8700 356° North 117 135 3,000  Climbing Indianapolis Center
Wed 05:47:32 PM 39.6217 -82.8453 39° Northeast 119 137 2,900 -48 Descending Indianapolis Center
Wed 05:48:37 PM 39.6419 -82.8206 43° Northeast 106 122 2,900 49 Level Indianapolis Center
Wed 05:49:34 PM 39.6289 -82.8028 134° Southeast 133 153 3,000 51 Climbing Indianapolis Center
Wed 05:50:35 PM 39.5975 -82.8344 218° Southwest 149 171 3,000 -49 Level Indianapolis Center
Wed 05:51:36 PM 39.5761 -82.8700 232° Southwest 139 160 2,900 -49 Descending Indianapolis Center
Wed 05:52:37 PM 39.5994 -82.8672 North 110 127 2,900 49 Level Indianapolis Center
Wed 05:53:38 PM 39.6217 -82.8453 37° Northeast 111 128 3,000 50 Climbing Indianapolis Center
Wed 05:54:38 PM 39.6442 -82.8236 37° Northeast 97 112 3,000 -50 Level Indianapolis Center
Wed 05:55:39 PM 39.6347 -82.8089 130° Southeast 95 109 2,900 -49 Descending Indianapolis Center
Wed 05:56:40 PM 39.5992 -82.8375 212° Southwest 159 183 2,900 49 Level Indianapolis Center
Wed 05:57:41 PM 39.5817 -82.8814 243° Southwest 205 236 3,000 49 Climbing Indianapolis Center
Wed 05:58:42 PM 39.6147 -82.8553 31° Northeast 175 201 3,000 -47 Level Indianapolis Center
Wed 05:59:49 PM 39.6292 -82.8597 347° North 162 186 2,900 -44 Descending Indianapolis Center
Wed 06:00:59 PM 39.6181 -82.8292 115° Southeast 187 215 2,900 49 Level Indianapolis Center
Wed 06:01:51 PM 39.6467 -82.8183 16° North 146 168 3,000  Climbing Indianapolis Center
Wed 06:02:52 PM 39.6378 -82.7931 115° Southeast 155 178 2,900 -49 Descending Indianapolis Center
Wed 06:03:53 PM 39.6064 -82.8275 220° Southwest 152 175 2,900  Level Indianapolis Center
Wed 06:04:54 PM 39.5725 -82.8614 218° Southwest 162 186 2,900 -246 Level Indianapolis Center
Wed 06:05:55 PM 39.5364 -82.9006 220° Southwest 179 206 2,400 -275 Descending Indianapolis Center
Wed 06:06:43 PM 39.5156 -82.9308 228° Southwest 152 175 2,400 80 Level Indianapolis Center
Wed 06:07:10 PM 39.5042 -82.9439 221° Southwest 153 176 2,500 -493 Climbing Indianapolis Center
Wed 06:07:56 PM 39.4831 -82.9756 229° Southwest 133 153 1,800 -774 Descending Indianapolis Center
Wed 06:08:12 PM 39.4783 -82.9778 200° South 143 165 1,700 -393 Descending Indianapolis Center
Wed 06:08:57 PM 39.4581 -83.0053 226° Southwest 136 157 1,400 -290 Descending Indianapolis Center
Wed 06:09:14 PM 39.4539 -83.0133 236° Southwest 137 158 1,400  Level Indianapolis Center
Wed 06:09:58 PM 39.4489 -83.0475 259° West 124 143 1,400  Level Indianapolis Center
Wed 06:10:16 PM 39.4394 -83.0558 214° Southwest 132 152 1,400 -98 Level Indianapolis Center
Wed 06:10:59 PM 39.4225 -83.0658 205° Southwest 120 138 1,300 -194 Descending Indianapolis Center
Wed 06:11:18 PM 39.4089 -83.0336 119° Southeast 133 153 1,200 186 Descending Indianapolis Center
Wed 06:12:36 PM 39.4514 -83.0125 21° North 79 91 1,600 364 Climbing Indianapolis Center
Wed 06:12:57 PM 39.4558 -83.0064 47° Northeast 98 113 1,800 1,012 Climbing Indianapolis Center
Wed 06:13:59 PM 39.4344 -83.0256 215° Southwest 123 142 3,000 629 Climbing Indianapolis Center
Wed 06:15:01 PM 39.4550 -83.0564 311° West 148 170 3,100  Climbing Indianapolis Center
Wed 06:15:58 PM 39.4906 -83.0792 334° Northwest 152 175 3,000 -103 Descending Indianapolis Center
Wed 06:16:58 PM 39.5294 -83.0944 343° North 147 169 2,900 -50 Descending Indianapolis Center
Wed 06:17:59 PM 39.5728 -83.1050 349° North 148 170 2,900 52 Level Indianapolis Center
Wed 06:18:54 PM 39.6097 -83.1119 352° North 150 173 3,000 86 Climbing Indianapolis Center
Wed 06:19:09 PM 39.6142 -83.1128 352° North 149 171 3,000  Level Indianapolis Center
Wed 06:19:55 PM 39.6456 -83.1106 North 123 142 3,000  Level Indianapolis Center
Wed 06:20:11 PM 39.6508 -83.1097 North 138 159 3,000  Level Indianapolis Center
Wed 06:21:13 PM 39.6928 -83.0892 21° North 137 158 3,000  Level Indianapolis Center
Wed 06:21:51 PM 39.7094 -83.0639 49° Northeast 153 176 3,000  Level Indianapolis Center
Wed 06:22:15 PM 39.7214 -83.0492 43° Northeast 148 170 3,000 -98 Level Indianapolis Center
Wed 06:22:52 PM 39.7414 -83.0269 41° Northeast 147 169 2,900 -581 Descending Indianapolis Center
Wed 06:23:17 PM 39.7492 -83.0136 53° Northeast 145 167 2,400 -984 Descending Indianapolis Center
Wed 06:23:53 PM 39.7622 -82.9967 45° Northeast 115 132 1,900 -677 Descending Indianapolis Center
Wed 06:24:19 PM 39.7728 -82.9825 46° Northeast 132 152 1,700 -590 Descending Indianapolis Center
Wed 06:24:54 PM 39.7875 -82.9644 43° Northeast 113 130 1,300 -581 Descending Indianapolis Center
Wed 06:25:21 PM 39.7947 -82.9550 45° Northeast 120 138 1,100 -202 Descending Indianapolis Center
Wed 06:26:23 PM 39.8153 -82.9281 45° Northeast 118 136 1,000  Descending Indianapolis Center
Wed 06:26:43 PM 39.8194 -82.9247 32° Northeast 96 110 1,100 300 Climbing Indianapolis Center

Login

Don't have an account? Register now (free) for customized features, flight alerts, and more!